sensor_id;sensor_type;location;lat;lon;timestamp;pressure;altitude;pressure_sealevel;temperature;humidity
28312;BME280;15572;48.810;9.148;2023-08-30T00:03:33;97536.50;;;12.73;100.00
28312;BME280;15572;48.810;9.148;2023-08-30T00:08:30;97528.56;;;12.72;100.00
28312;BME280;15572;48.810;9.148;2023-08-30T00:13:29;97525.19;;;12.76;100.00
28312;BME280;15572;48.810;9.148;2023-08-30T00:18:25;97522.63;;;12.81;100.00
28312;BME280;15572;48.810;9.148;2023-08-30T00:23:22;97517.19;;;12.81;100.00
28312;BME280;15572;48.810;9.148;2023-08-30T00:28:18;97516.13;;;12.82;100.00
28312;BME280;15572;48.810;9.148;2023-08-30T00:33:16;97518.63;;;12.84;100.00
28312;BME280;15572;48.810;9.148;2023-08-30T00:38:13;97507.16;;;12.82;100.00
28312;BME280;15572;48.810;9.148;2023-08-30T00:43:09;97502.53;;;12.82;100.00
28312;BME280;15572;48.810;9.148;2023-08-30T00:48:06;97490.41;;;12.85;100.00
28312;BME280;15572;48.810;9.148;2023-08-30T00:53:05;97491.22;;;12.85;100.00
28312;BME280;15572;48.810;9.148;2023-08-30T00:58:03;97491.22;;;12.85;100.00
28312;BME280;15572;48.810;9.148;2023-08-30T01:02:59;97492.22;;;12.91;100.00
28312;BME280;15572;48.810;9.148;2023-08-30T01:07:56;97480.88;;;12.94;100.00
28312;BME280;15572;48.810;9.148;2023-08-30T01:12:59;97480.88;;;12.94;100.00
28312;BME280;15572;48.810;9.148;2023-08-30T01:17:59;97475.22;;;12.95;100.00
28312;BME280;15572;48.810;9.148;2023-08-30T01:23:00;97472.59;;;12.89;100.00
28312;BME280;15572;48.810;9.148;2023-08-30T01:28:03;97478.28;;;12.69;100.00
28312;BME280;15572;48.810;9.148;2023-08-30T01:33:01;97480.28;;;12.55;100.00
28312;BME280;15572;48.810;9.148;2023-08-30T01:37:58;97481.50;;;12.41;100.00
28312;BME280;15572;48.810;9.148;2023-08-30T01:42:56;97475.25;;;12.41;100.00
28312;BME280;15572;48.810;9.148;2023-08-30T01:47:55;97480.09;;;12.39;100.00
28312;BME280;15572;48.810;9.148;2023-08-30T01:52:53;97477.38;;;12.39;100.00
28312;BME280;15572;48.810;9.148;2023-08-30T01:57:51;97482.66;;;12.34;100.00
28312;BME280;15572;48.810;9.148;2023-08-30T02:02:48;97486.00;;;12.29;100.00
28312;BME280;15572;48.810;9.148;2023-08-30T02:07:53;97490.69;;;12.22;100.00
28312;BME280;15572;48.810;9.148;2023-08-30T02:12:53;97487.34;;;12.20;100.00
28312;BME280;15572;48.810;9.148;2023-08-30T02:17:50;97491.94;;;12.19;100.00
28312;BME280;15572;48.810;9.148;2023-08-30T02:22:48;97482.38;;;12.17;100.00
28312;BME280;15572;48.810;9.148;2023-08-30T02:27:45;97488.03;;;12.15;100.00
28312;BME280;15572;48.810;9.148;2023-08-30T02:32:41;97482.88;;;12.07;100.00
28312;BME280;15572;48.810;9.148;2023-08-30T02:37:38;97482.19;;;11.94;100.00
28312;BME280;15572;48.810;9.148;2023-08-30T02:42:36;97484.81;;;11.75;100.00
28312;BME280;15572;48.810;9.148;2023-08-30T02:47:33;97499.47;;;11.68;100.00
28312;BME280;15572;48.810;9.148;2023-08-30T02:52:29;97493.47;;;11.59;100.00
28312;BME280;15572;48.810;9.148;2023-08-30T02:57:26;97490.56;;;11.54;100.00
28312;BME280;15572;48.810;9.148;2023-08-30T03:02:24;97492.66;;;11.59;100.00
28312;BME280;15572;48.810;9.148;2023-08-30T03:07:20;97489.72;;;11.60;100.00
28312;BME280;15572;48.810;9.148;2023-08-30T03:12:17;97486.78;;;11.62;100.00
28312;BME280;15572;48.810;9.148;2023-08-30T03:17:13;97487.41;;;11.64;100.00
28312;BME280;15572;48.810;9.148;2023-08-30T03:22:11;97467.53;;;11.70;100.00
28312;BME280;15572;48.810;9.148;2023-08-30T03:27:07;97472.94;;;11.70;100.00
28312;BME280;15572;48.810;9.148;2023-08-30T03:32:04;97466.25;;;11.72;100.00
28312;BME280;15572;48.810;9.148;2023-08-30T03:37:01;97462.53;;;11.73;100.00
28312;BME280;15572;48.810;9.148;2023-08-30T03:41:59;97467.91;;;11.80;100.00
28312;BME280;15572;48.810;9.148;2023-08-30T03:46:56;97466.63;;;11.82;100.00
28312;BME280;15572;48.810;9.148;2023-08-30T03:51:52;97468.44;;;11.89;100.00
28312;BME280;15572;48.810;9.148;2023-08-30T03:56:48;97471.31;;;11.94;100.00
28312;BME280;15572;48.810;9.148;2023-08-30T04:01:46;97472.09;;;12.01;100.00
28312;BME280;15572;48.810;9.148;2023-08-30T04:06:43;97474.72;;;12.07;100.00
28312;BME280;15572;48.810;9.148;2023-08-30T04:11:39;97480.72;;;12.16;100.00
28312;BME280;15572;48.810;9.148;2023-08-30T04:16:37;97481.31;;;12.18;100.00
28312;BME280;15572;48.810;9.148;2023-08-30T04:21:35;97474.41;;;12.22;100.00
28312;BME280;15572;48.810;9.148;2023-08-30T04:26:31;97477.34;;;12.20;100.00
28312;BME280;15572;48.810;9.148;2023-08-30T04:31:28;97474.41;;;12.22;100.00
28312;BME280;15572;48.810;9.148;2023-08-30T04:36:24;97483.81;;;12.19;100.00
28312;BME280;15572;48.810;9.148;2023-08-30T04:41:22;97481.94;;;12.20;100.00
28312;BME280;15572;48.810;9.148;2023-08-30T04:46:18;97477.56;;;12.19;100.00
28312;BME280;15572;48.810;9.148;2023-08-30T04:51:15;97482.75;;;12.20;100.00
28312;BME280;15572;48.810;9.148;2023-08-30T04:56:12;97480.03;;;12.20;100.00
28312;BME280;15572;48.810;9.148;2023-08-30T05:01:10;97474.78;;;12.26;100.00
28312;BME280;15572;48.810;9.148;2023-08-30T05:06:08;97478.47;;;12.31;100.00
28312;BME280;15572;48.810;9.148;2023-08-30T05:11:05;97469.88;;;12.34;100.00
28312;BME280;15572;48.810;9.148;2023-08-30T05:16:01;97476.28;;;12.40;100.00
28312;BME280;15572;48.810;9.148;2023-08-30T05:20:59;97480.97;;;12.51;100.00
28312;BME280;15572;48.810;9.148;2023-08-30T05:25:58;97482.78;;;12.57;100.00
28312;BME280;15572;48.810;9.148;2023-08-30T05:30:55;97475.41;;;12.64;100.00
28312;BME280;15572;48.810;9.148;2023-08-30T05:35:51;97480.16;;;12.69;100.00
28312;BME280;15572;48.810;9.148;2023-08-30T05:40:49;97481.63;;;12.83;100.00
28312;BME280;15572;48.810;9.148;2023-08-30T05:45:46;97472.72;;;12.94;100.00
28312;BME280;15572;48.810;9.148;2023-08-30T05:50:42;97473.47;;;13.01;100.00
28312;BME280;15572;48.810;9.148;2023-08-30T05:55:40;97474.81;;;13.10;100.00
28312;BME280;15572;48.810;9.148;2023-08-30T06:00:38;97470.38;;;13.16;100.00
28312;BME280;15572;48.810;9.148;2023-08-30T06:05:34;97476.56;;;13.23;100.00
28312;BME280;15572;48.810;9.148;2023-08-30T06:10:31;97468.31;;;13.29;100.00
28312;BME280;15572;48.810;9.148;2023-08-30T06:15:27;97475.09;;;13.38;100.00
28312;BME280;15572;48.810;9.148;2023-08-30T06:20:25;97483.38;;;13.43;100.00
28312;BME280;15572;48.810;9.148;2023-08-30T06:25:22;97488.84;;;13.25;100.00
28312;BME280;15572;48.810;9.148;2023-08-30T06:30:18;97481.78;;;13.24;100.00
28312;BME280;15572;48.810;9.148;2023-08-30T06:35:15;97479.34;;;13.34;100.00
28312;BME280;15572;48.810;9.148;2023-08-30T06:40:13;97485.75;;;13.52;100.00
28312;BME280;15572;48.810;9.148;2023-08-30T06:45:10;97483.19;;;13.68;100.00
28312;BME280;15572;48.810;9.148;2023-08-30T06:50:08;97479.66;;;13.79;100.00
28312;BME280;15572;48.810;9.148;2023-08-30T06:55:05;97484.53;;;13.89;100.00
28312;BME280;15572;48.810;9.148;2023-08-30T07:00:04;97488.59;;;13.98;100.00
28312;BME280;15572;48.810;9.148;2023-08-30T07:05:03;97475.94;;;14.04;100.00
28312;BME280;15572;48.810;9.148;2023-08-30T07:10:00;97480.19;;;14.11;100.00
28312;BME280;15572;48.810;9.148;2023-08-30T07:14:56;97480.19;;;14.23;100.00
28312;BME280;15572;48.810;9.148;2023-08-30T07:19:54;97474.84;;;14.28;100.00
28312;BME280;15572;48.810;9.148;2023-08-30T07:24:51;97474.16;;;14.32;100.00
28312;BME280;15572;48.810;9.148;2023-08-30T07:29:47;97478.09;;;14.37;100.00
28312;BME280;15572;48.810;9.148;2023-08-30T07:34:44;97479.28;;;14.41;100.00
28312;BME280;15572;48.810;9.148;2023-08-30T07:39:41;97475.00;;;14.45;100.00
28312;BME280;15572;48.810;9.148;2023-08-30T07:44:38;97480.56;;;14.50;100.00
28312;BME280;15572;48.810;9.148;2023-08-30T07:49:34;97478.06;;;14.60;100.00
28312;BME280;15572;48.810;9.148;2023-08-30T07:54:31;97477.31;;;14.76;100.00
28312;BME280;15572;48.810;9.148;2023-08-30T07:59:29;97481.19;;;14.92;100.00
28312;BME280;15572;48.810;9.148;2023-08-30T08:04:25;97471.31;;;15.02;100.00
28312;BME280;15572;48.810;9.148;2023-08-30T08:09:22;97466.78;;;15.20;100.00
28312;BME280;15572;48.810;9.148;2023-08-30T08:14:18;97476.56;;;15.32;100.00
28312;BME280;15572;48.810;9.148;2023-08-30T08:19:16;97478.66;;;15.42;100.00
28312;BME280;15572;48.810;9.148;2023-08-30T08:24:13;97475.63;;;15.55;100.00
28312;BME280;15572;48.810;9.148;2023-08-30T08:29:09;97478.81;;;15.64;100.00
28312;BME280;15572;48.810;9.148;2023-08-30T08:34:08;97471.88;;;15.73;100.00
28312;BME280;15572;48.810;9.148;2023-08-30T08:39:07;97473.19;;;15.87;100.00
28312;BME280;15572;48.810;9.148;2023-08-30T08:44:05;97473.72;;;16.00;100.00
28312;BME280;15572;48.810;9.148;2023-08-30T08:49:07;97474.38;;;16.08;100.00
28312;BME280;15572;48.810;9.148;2023-08-30T08:54:04;97476.13;;;15.97;100.00
28312;BME280;15572;48.810;9.148;2023-08-30T08:59:03;97469.09;;;16.18;100.00
28312;BME280;15572;48.810;9.148;2023-08-30T09:04:03;97474.00;;;16.37;100.00
28312;BME280;15572;48.810;9.148;2023-08-30T09:09:00;97475.38;;;16.57;100.00
28312;BME280;15572;48.810;9.148;2023-08-30T09:13:58;97473.47;;;16.74;100.00
28312;BME280;15572;48.810;9.148;2023-08-30T09:19:00;97468.31;;;16.99;100.00
28312;BME280;15572;48.810;9.148;2023-08-30T09:24:06;97485.94;;;17.30;100.00
28312;BME280;15572;48.810;9.148;2023-08-30T09:29:03;97480.19;;;17.32;100.00
28312;BME280;15572;48.810;9.148;2023-08-30T09:33:59;97469.50;;;17.52;100.00
28312;BME280;15572;48.810;9.148;2023-08-30T09:38:56;97469.91;;;17.65;100.00
28312;BME280;15572;48.810;9.148;2023-08-30T09:43:54;97464.59;;;17.81;100.00
28312;BME280;15572;48.810;9.148;2023-08-30T09:48:53;97470.97;;;17.91;100.00
28312;BME280;15572;48.810;9.148;2023-08-30T09:53:53;97460.75;;;18.14;100.00
28312;BME280;15572;48.810;9.148;2023-08-30T09:58:56;97461.72;;;18.34;100.00
28312;BME280;15572;48.810;9.148;2023-08-30T10:03:55;97459.41;;;18.53;100.00
28312;BME280;15572;48.810;9.148;2023-08-30T10:08:53;97457.44;;;18.48;98.62
28312;BME280;15572;48.810;9.148;2023-08-30T10:13:51;97458.00;;;18.50;94.64
28312;BME280;15572;48.810;9.148;2023-08-30T10:18:52;97450.19;;;18.32;87.34
28312;BME280;15572;48.810;9.148;2023-08-30T10:23:51;97438.28;;;18.12;83.84
28312;BME280;15572;48.810;9.148;2023-08-30T10:28:51;97423.19;;;18.46;79.73
28312;BME280;15572;48.810;9.148;2023-08-30T10:33:52;97423.66;;;18.75;82.37
28312;BME280;15572;48.810;9.148;2023-08-30T10:38:49;97416.03;;;18.92;79.90
28312;BME280;15572;48.810;9.148;2023-08-30T10:43:49;97410.91;;;19.16;78.92
28312;BME280;15572;48.810;9.148;2023-08-30T10:48:46;97420.16;;;18.95;65.92
28312;BME280;15572;48.810;9.148;2023-08-30T10:53:56;97411.38;;;18.98;70.24
28312;BME280;15572;48.810;9.148;2023-08-30T10:58:52;97411.16;;;19.14;69.96
28312;BME280;15572;48.810;9.148;2023-08-30T11:03:49;97398.94;;;19.47;68.14
28312;BME280;15572;48.810;9.148;2023-08-30T11:08:47;97403.91;;;20.06;65.26
28312;BME280;15572;48.810;9.148;2023-08-30T11:13:45;97404.97;;;20.15;63.54
28312;BME280;15572;48.810;9.148;2023-08-30T11:18:42;97409.94;;;19.77;64.89
28312;BME280;15572;48.810;9.148;2023-08-30T11:23:38;97393.41;;;19.42;69.04
28312;BME280;15572;48.810;9.148;2023-08-30T11:28:35;97400.66;;;18.86;78.25
28312;BME280;15572;48.810;9.148;2023-08-30T11:33:32;97409.16;;;18.37;79.59
28312;BME280;15572;48.810;9.148;2023-08-30T11:38:29;97414.09;;;17.98;83.94
28312;BME280;15572;48.810;9.148;2023-08-30T11:43:26;97426.50;;;17.52;96.20
28312;BME280;15572;48.810;9.148;2023-08-30T11:48:24;97423.06;;;17.08;100.00
28312;BME280;15572;48.810;9.148;2023-08-30T11:53:23;97432.34;;;16.64;100.00
28312;BME280;15572;48.810;9.148;2023-08-30T11:58:19;97426.25;;;16.40;100.00
28312;BME280;15572;48.810;9.148;2023-08-30T12:03:16;97426.31;;;16.07;100.00
28312;BME280;15572;48.810;9.148;2023-08-30T12:08:18;97419.97;;;15.84;100.00
28312;BME280;15572;48.810;9.148;2023-08-30T12:13:23;97417.47;;;15.66;100.00
28312;BME280;15572;48.810;9.148;2023-08-30T12:18:23;97416.25;;;15.74;100.00
28312;BME280;15572;48.810;9.148;2023-08-30T12:23:22;97416.31;;;15.95;100.00
28312;BME280;15572;48.810;9.148;2023-08-30T12:28:19;97406.44;;;16.11;100.00
28312;BME280;15572;48.810;9.148;2023-08-30T12:33:17;97406.88;;;16.41;100.00
28312;BME280;15572;48.810;9.148;2023-08-30T12:38:14;97391.44;;;16.69;100.00
28312;BME280;15572;48.810;9.148;2023-08-30T12:43:12;97386.66;;;16.81;100.00
28312;BME280;15572;48.810;9.148;2023-08-30T12:48:11;97378.53;;;17.13;100.00
28312;BME280;15572;48.810;9.148;2023-08-30T12:53:10;97378.84;;;17.43;100.00
28312;BME280;15572;48.810;9.148;2023-08-30T12:58:08;97376.91;;;17.71;100.00
28312;BME280;15572;48.810;9.148;2023-08-30T13:03:04;97382.75;;;17.84;100.00
28312;BME280;15572;48.810;9.148;2023-08-30T13:08:01;97375.28;;;18.12;100.00
28312;BME280;15572;48.810;9.148;2023-08-30T13:12:59;97378.25;;;18.47;100.00
28312;BME280;15572;48.810;9.148;2023-08-30T13:17:56;97371.84;;;18.78;100.00
28312;BME280;15572;48.810;9.148;2023-08-30T13:22:52;97366.22;;;19.30;100.00
28312;BME280;15572;48.810;9.148;2023-08-30T13:27:49;97357.16;;;20.36;100.00
28312;BME280;15572;48.810;9.148;2023-08-30T13:32:47;97364.44;;;21.35;100.00
28312;BME280;15572;48.810;9.148;2023-08-30T13:37:43;97362.66;;;21.89;96.01
28312;BME280;15572;48.810;9.148;2023-08-30T13:42:39;97361.34;;;21.81;92.59
28312;BME280;15572;48.810;9.148;2023-08-30T13:47:36;97349.13;;;21.63;92.38
28312;BME280;15572;48.810;9.148;2023-08-30T13:52:34;97353.13;;;21.42;86.72
28312;BME280;15572;48.810;9.148;2023-08-30T13:57:30;97353.88;;;21.48;84.20
28312;BME280;15572;48.810;9.148;2023-08-30T14:02:27;97371.09;;;21.29;84.25
28312;BME280;15572;48.810;9.148;2023-08-30T14:07:23;97358.31;;;20.94;82.62
28312;BME280;15572;48.810;9.148;2023-08-30T14:12:21;97359.34;;;20.49;84.50
28312;BME280;15572;48.810;9.148;2023-08-30T14:17:18;97353.88;;;20.24;86.28
28312;BME280;15572;48.810;9.148;2023-08-30T14:22:14;97348.72;;;19.92;85.52
28312;BME280;15572;48.810;9.148;2023-08-30T14:27:11;97345.13;;;19.71;87.66
28312;BME280;15572;48.810;9.148;2023-08-30T14:32:10;97351.72;;;19.50;91.14
28312;BME280;15572;48.810;9.148;2023-08-30T14:37:07;97362.38;;;19.31;91.50
28312;BME280;15572;48.810;9.148;2023-08-30T14:42:03;97375.50;;;19.09;91.78
28312;BME280;15572;48.810;9.148;2023-08-30T14:47:00;97375.41;;;18.79;96.25
28312;BME280;15572;48.810;9.148;2023-08-30T14:51:58;97370.66;;;18.59;100.00
28312;BME280;15572;48.810;9.148;2023-08-30T14:56:54;97370.38;;;18.56;100.00
28312;BME280;15572;48.810;9.148;2023-08-30T15:01:51;97364.41;;;18.69;100.00
28312;BME280;15572;48.810;9.148;2023-08-30T15:06:47;97353.47;;;18.79;100.00
28312;BME280;15572;48.810;9.148;2023-08-30T15:11:45;97352.69;;;18.88;100.00
28312;BME280;15572;48.810;9.148;2023-08-30T15:16:41;97347.78;;;19.01;100.00
28312;BME280;15572;48.810;9.148;2023-08-30T15:21:38;97355.22;;;19.20;100.00
28312;BME280;15572;48.810;9.148;2023-08-30T15:26:34;97346.75;;;19.32;100.00
28312;BME280;15572;48.810;9.148;2023-08-30T15:31:32;97344.53;;;19.29;100.00
28312;BME280;15572;48.810;9.148;2023-08-30T15:36:29;97342.34;;;19.31;100.00
28312;BME280;15572;48.810;9.148;2023-08-30T15:41:26;97348.19;;;19.65;100.00
28312;BME280;15572;48.810;9.148;2023-08-30T15:46:22;97339.91;;;20.00;99.38
28312;BME280;15572;48.810;9.148;2023-08-30T15:51:20;97343.41;;;20.41;93.85
28312;BME280;15572;48.810;9.148;2023-08-30T15:56:17;97342.56;;;21.05;89.02
28312;BME280;15572;48.810;9.148;2023-08-30T16:01:13;97344.59;;;21.38;87.11
28312;BME280;15572;48.810;9.148;2023-08-30T16:06:11;97339.75;;;21.25;85.37
28312;BME280;15572;48.810;9.148;2023-08-30T16:11:09;97335.09;;;20.62;89.15
28312;BME280;15572;48.810;9.148;2023-08-30T16:16:05;97331.66;;;20.00;90.09
28312;BME280;15572;48.810;9.148;2023-08-30T16:21:02;97328.97;;;19.55;93.12
28312;BME280;15572;48.810;9.148;2023-08-30T16:25:58;97325.63;;;19.32;96.15
28312;BME280;15572;48.810;9.148;2023-08-30T16:30:58;97324.78;;;19.27;98.10
28312;BME280;15572;48.810;9.148;2023-08-30T16:35:55;97332.19;;;19.26;98.69
28312;BME280;15572;48.810;9.148;2023-08-30T16:40:52;97326.72;;;19.42;98.21
28312;BME280;15572;48.810;9.148;2023-08-30T16:45:49;97318.53;;;19.52;96.35
28312;BME280;15572;48.810;9.148;2023-08-30T16:50:47;97314.69;;;19.53;94.76
28312;BME280;15572;48.810;9.148;2023-08-30T16:55:44;97316.31;;;19.44;95.16
28312;BME280;15572;48.810;9.148;2023-08-30T17:00:40;97317.09;;;19.34;96.25
28312;BME280;15572;48.810;9.148;2023-08-30T17:05:37;97311.91;;;19.27;96.61
28312;BME280;15572;48.810;9.148;2023-08-30T17:10:36;97315.16;;;19.14;97.26
28312;BME280;15572;48.810;9.148;2023-08-30T17:15:33;97317.88;;;18.94;98.80
28312;BME280;15572;48.810;9.148;2023-08-30T17:20:30;97317.84;;;18.79;99.75
28312;BME280;15572;48.810;9.148;2023-08-30T17:25:26;97317.50;;;18.60;100.00
28312;BME280;15572;48.810;9.148;2023-08-30T17:30:24;97326.16;;;18.42;100.00
28312;BME280;15572;48.810;9.148;2023-08-30T17:35:21;97328.28;;;18.30;100.00
28312;BME280;15572;48.810;9.148;2023-08-30T17:40:21;97324.66;;;18.14;100.00
28312;BME280;15572;48.810;9.148;2023-08-30T17:45:18;97323.50;;;18.00;100.00
28312;BME280;15572;48.810;9.148;2023-08-30T17:50:16;97325.56;;;17.83;100.00
28312;BME280;15572;48.810;9.148;2023-08-30T17:55:12;97328.19;;;17.67;100.00
28312;BME280;15572;48.810;9.148;2023-08-30T18:00:11;97326.94;;;17.53;100.00
28312;BME280;15572;48.810;9.148;2023-08-30T18:05:09;97333.94;;;17.39;100.00
28312;BME280;15572;48.810;9.148;2023-08-30T18:10:07;97343.09;;;17.23;100.00
28312;BME280;15572;48.810;9.148;2023-08-30T18:15:05;97343.00;;;17.13;100.00
28312;BME280;15572;48.810;9.148;2023-08-30T18:20:02;97356.56;;;17.03;100.00
28312;BME280;15572;48.810;9.148;2023-08-30T18:25:04;97353.72;;;16.93;100.00
28312;BME280;15572;48.810;9.148;2023-08-30T18:30:03;97353.69;;;16.88;100.00
28312;BME280;15572;48.810;9.148;2023-08-30T18:35:00;97356.59;;;16.81;100.00
28312;BME280;15572;48.810;9.148;2023-08-30T18:39:57;97358.16;;;16.72;100.00
28312;BME280;15572;48.810;9.148;2023-08-30T18:44:53;97353.69;;;16.66;100.00
28312;BME280;15572;48.810;9.148;2023-08-30T18:49:52;97355.59;;;16.65;100.00
28312;BME280;15572;48.810;9.148;2023-08-30T18:54:48;97351.44;;;16.63;100.00
28312;BME280;15572;48.810;9.148;2023-08-30T18:59:45;97370.84;;;16.61;100.00
28312;BME280;15572;48.810;9.148;2023-08-30T19:04:41;97372.41;;;16.79;100.00
28312;BME280;15572;48.810;9.148;2023-08-30T19:09:40;97382.59;;;17.10;98.60
28312;BME280;15572;48.810;9.148;2023-08-30T19:14:37;97387.81;;;17.12;100.00
28312;BME280;15572;48.810;9.148;2023-08-30T19:19:33;97391.03;;;17.04;100.00
28312;BME280;15572;48.810;9.148;2023-08-30T19:24:30;97392.00;;;16.93;100.00
28312;BME280;15572;48.810;9.148;2023-08-30T19:29:33;97396.69;;;16.75;100.00
28312;BME280;15572;48.810;9.148;2023-08-30T19:34:30;97402.88;;;16.66;100.00
28312;BME280;15572;48.810;9.148;2023-08-30T19:39:28;97402.38;;;16.52;100.00
28312;BME280;15572;48.810;9.148;2023-08-30T19:44:25;97420.22;;;16.38;100.00
28312;BME280;15572;48.810;9.148;2023-08-30T19:49:23;97436.53;;;16.33;100.00
28312;BME280;15572;48.810;9.148;2023-08-30T19:54:19;97447.38;;;16.45;100.00
28312;BME280;15572;48.810;9.148;2023-08-30T19:59:16;97458.75;;;16.58;100.00
28312;BME280;15572;48.810;9.148;2023-08-30T20:04:12;97469.47;;;16.60;100.00
28312;BME280;15572;48.810;9.148;2023-08-30T20:09:10;97470.44;;;16.54;100.00
28312;BME280;15572;48.810;9.148;2023-08-30T20:14:06;97467.06;;;16.30;100.00
28312;BME280;15572;48.810;9.148;2023-08-30T20:19:03;97474.53;;;16.18;100.00
28312;BME280;15572;48.810;9.148;2023-08-30T20:24:00;97471.97;;;15.94;100.00
28312;BME280;15572;48.810;9.148;2023-08-30T20:28:58;97467.00;;;15.75;100.00
28312;BME280;15572;48.810;9.148;2023-08-30T20:33:55;97468.28;;;15.55;100.00
28312;BME280;15572;48.810;9.148;2023-08-30T20:38:51;97484.78;;;15.49;100.00
28312;BME280;15572;48.810;9.148;2023-08-30T20:43:48;97491.13;;;15.38;100.00
28312;BME280;15572;48.810;9.148;2023-08-30T20:48:45;97494.72;;;15.27;100.00
28312;BME280;15572;48.810;9.148;2023-08-30T20:53:42;97491.31;;;15.20;100.00
28312;BME280;15572;48.810;9.148;2023-08-30T20:58:43;97487.22;;;15.05;100.00
28312;BME280;15572;48.810;9.148;2023-08-30T21:03:42;97490.91;;;14.99;100.00
28312;BME280;15572;48.810;9.148;2023-08-30T21:08:40;97488.19;;;14.99;100.00
28312;BME280;15572;48.810;9.148;2023-08-30T21:13:36;97490.91;;;14.99;100.00
28312;BME280;15572;48.810;9.148;2023-08-30T21:18:33;97494.09;;;14.96;100.00
28312;BME280;15572;48.810;9.148;2023-08-30T21:23:29;97493.25;;;14.96;100.00
28312;BME280;15572;48.810;9.148;2023-08-30T21:28:28;97500.53;;;14.90;100.00
28312;BME280;15572;48.810;9.148;2023-08-30T21:33:27;97505.03;;;14.85;100.00
28312;BME280;15572;48.810;9.148;2023-08-30T21:38:23;97506.84;;;14.79;100.00
28312;BME280;15572;48.810;9.148;2023-08-30T21:43:20;97528.03;;;14.77;100.00
28312;BME280;15572;48.810;9.148;2023-08-30T21:48:18;97525.31;;;14.77;100.00
28312;BME280;15572;48.810;9.148;2023-08-30T21:53:14;97511.91;;;14.64;100.00
28312;BME280;15572;48.810;9.148;2023-08-30T21:58:11;97521.41;;;14.50;100.00
28312;BME280;15572;48.810;9.148;2023-08-30T22:03:07;97526.63;;;14.40;100.00
28312;BME280;15572;48.810;9.148;2023-08-30T22:08:06;97528.84;;;14.19;100.00
28312;BME280;15572;48.810;9.148;2023-08-30T22:13:03;97530.94;;;14.06;100.00
28312;BME280;15572;48.810;9.148;2023-08-30T22:17:59;97524.78;;;13.99;100.00
28312;BME280;15572;48.810;9.148;2023-08-30T22:22:56;97534.47;;;13.95;100.00
28312;BME280;15572;48.810;9.148;2023-08-30T22:27:54;97536.47;;;13.87;100.00
28312;BME280;15572;48.810;9.148;2023-08-30T22:32:51;97537.06;;;13.78;100.00
28312;BME280;15572;48.810;9.148;2023-08-30T22:37:48;97543.28;;;13.78;100.00
28312;BME280;15572;48.810;9.148;2023-08-30T22:42:44;97546.75;;;13.85;100.00
28312;BME280;15572;48.810;9.148;2023-08-30T22:47:42;97547.31;;;13.76;100.00
28312;BME280;15572;48.810;9.148;2023-08-30T22:52:40;97547.63;;;13.68;100.00
28312;BME280;15572;48.810;9.148;2023-08-30T22:57:37;97553.56;;;13.65;100.00
28312;BME280;15572;48.810;9.148;2023-08-30T23:02:34;97546.44;;;13.64;100.00
28312;BME280;15572;48.810;9.148;2023-08-30T23:07:32;97561.78;;;13.58;100.00
28312;BME280;15572;48.810;9.148;2023-08-30T23:12:28;97564.38;;;13.53;100.00
28312;BME280;15572;48.810;9.148;2023-08-30T23:17:25;97558.81;;;13.48;100.00
28312;BME280;15572;48.810;9.148;2023-08-30T23:22:21;97566.13;;;13.47;100.00
28312;BME280;15572;48.810;9.148;2023-08-30T23:27:19;97559.97;;;13.40;100.00
28312;BME280;15572;48.810;9.148;2023-08-30T23:32:15;97561.25;;;13.38;100.00
28312;BME280;15572;48.810;9.148;2023-08-30T23:37:12;97572.94;;;13.38;100.00
28312;BME280;15572;48.810;9.148;2023-08-30T23:42:09;97570.84;;;13.40;100.00
28312;BME280;15572;48.810;9.148;2023-08-30T23:47:07;97577.19;;;13.34;100.00
28312;BME280;15572;48.810;9.148;2023-08-30T23:52:04;97561.94;;;13.33;100.00
28312;BME280;15572;48.810;9.148;2023-08-30T23:57:01;97572.66;;;13.28;100.00
